テルアビブ / ベン・グリオン の空港の天気 - METARとTAF

ベン・グリオン国際空港(テルアビブ) ( LLBG / TLV ) - イスラエル ロード / テルアビブ
飛行場実況気象(Metar)
観測時間05/20 05:50 IDT (05/20 02:50 UTC)
風向・風速不定 2m/s
視程10km以上
天気現象
なし
気温17℃
湿度68%
気圧1012hPa
METARLLBG 200250Z VRB03KT CAVOK 17/11 Q1012 NOSIG
過去の天気等 Google飛行場航空写真 Wunderground天気予報

過去48時間のMETAR

飛行場予報(TAF)
発表時間: 5/20 03:20 IDT (5/20 00:20 UTC)
予報対象時間: 20日3時 IDT ~ 21日3時 IDT
風向・風速不定 2m/s
視程7000m
なし
20日6時 IDT ~ 20日10時 IDT に 確率 30% で一時的に
視程5000m
天気現象もや
全天の4割程度の雲 雲底高度 150m
20日10時 IDT ~ 20日12時 IDT に徐々に
風向・風速北北西 8m/s
視程10km以上
なし
20日19時 IDT ~ 20日21時 IDT に徐々に
風向・風速北北東 3m/s
TAF AMD LLBG 200020Z 2000/2024 VRB03KT 7000 NSC
PROB30 TEMPO 2003/2007 5000 BR SCT005
BECMG 2007/2009 33015KT CAVOK
BECMG 2016/2018 02005KT TX33/2009Z TN18/2002Z